sensor_id;sensor_type;location;lat;lon;timestamp;pressure;altitude;pressure_sealevel;temperature;humidity
78064;BME280;67429;51.596;-3.264;2023-04-12T00:02:14;97535.03;;;4.21;56.45
78064;BME280;67429;51.596;-3.264;2023-04-12T00:04:40;97551.49;;;3.56;57.69
78064;BME280;67429;51.596;-3.264;2023-04-12T00:07:05;97560.03;;;3.26;59.52
78064;BME280;67429;51.596;-3.264;2023-04-12T00:09:30;97564.31;;;2.58;61.50
78064;BME280;67429;51.596;-3.264;2023-04-12T00:11:56;97567.01;;;2.09;62.86
78064;BME280;67429;51.596;-3.264;2023-04-12T00:14:22;97557.70;;;2.05;62.10
78064;BME280;67429;51.596;-3.264;2023-04-12T00:16:48;97556.93;;;2.31;61.03
78064;BME280;67429;51.596;-3.264;2023-04-12T00:19:14;97556.18;;;2.58;60.29
78064;BME280;67429;51.596;-3.264;2023-04-12T00:21:40;97555.92;;;2.34;61.38
78064;BME280;67429;51.596;-3.264;2023-04-12T00:24:06;97548.96;;;2.68;59.75
78064;BME280;67429;51.596;-3.264;2023-04-12T00:26:31;97552.74;;;2.56;59.61
78064;BME280;67429;51.596;-3.264;2023-04-12T00:28:56;97558.24;;;2.76;59.49
78064;BME280;67429;51.596;-3.264;2023-04-12T00:31:22;97547.05;;;2.13;60.73
78064;BME280;67429;51.596;-3.264;2023-04-12T00:33:48;97552.97;;;2.48;60.90
78064;BME280;67429;51.596;-3.264;2023-04-12T00:36:15;97548.21;;;2.58;60.39
78064;BME280;67429;51.596;-3.264;2023-04-12T00:38:40;97546.51;;;3.45;58.14
78064;BME280;67429;51.596;-3.264;2023-04-12T00:41:06;97548.36;;;2.61;61.00
78064;BME280;67429;51.596;-3.264;2023-04-12T00:43:31;97552.56;;;2.17;63.48
78064;BME280;67429;51.596;-3.264;2023-04-12T00:45:57;97561.44;;;2.05;64.29
78064;BME280;67429;51.596;-3.264;2023-04-12T00:48:23;97577.61;;;1.81;64.67
78064;BME280;67429;51.596;-3.264;2023-04-12T00:50:49;97562.18;;;1.23;64.11
78064;BME280;67429;51.596;-3.264;2023-04-12T00:53:15;97569.03;;;1.43;63.96
78064;BME280;67429;51.596;-3.264;2023-04-12T00:55:42;97571.50;;;2.24;61.21
78064;BME280;67429;51.596;-3.264;2023-04-12T00:58:06;97577.88;;;1.58;62.00
78064;BME280;67429;51.596;-3.264;2023-04-12T01:00:33;97568.44;;;1.24;64.88
78064;BME280;67429;51.596;-3.264;2023-04-12T01:02:57;97548.67;;;1.36;64.53
78064;BME280;67429;51.596;-3.264;2023-04-12T01:05:23;97549.05;;;1.66;65.31
78064;BME280;67429;51.596;-3.264;2023-04-12T01:07:57;97552.59;;;0.52;66.26
78064;BME280;67429;51.596;-3.264;2023-04-12T01:10:21;97568.13;;;0.96;66.29
78064;BME280;67429;51.596;-3.264;2023-04-12T01:12:44;97588.51;;;0.30;68.22
78064;BME280;67429;51.596;-3.264;2023-04-12T01:15:09;97582.40;;;0.23;69.24
78064;BME280;67429;51.596;-3.264;2023-04-12T01:17:37;97548.27;;;-0.26;71.16
78064;BME280;67429;51.596;-3.264;2023-04-12T01:20:01;97548.56;;;0.17;70.45
78064;BME280;67429;51.596;-3.264;2023-04-12T01:22:37;97541.68;;;-0.09;71.03
78064;BME280;67429;51.596;-3.264;2023-04-12T01:25:00;97530.98;;;0.34;70.35
78064;BME280;67429;51.596;-3.264;2023-04-12T01:27:26;97521.43;;;0.46;69.00
78064;BME280;67429;51.596;-3.264;2023-04-12T01:29:42;97515.40;;;1.12;66.33
78064;BME280;67429;51.596;-3.264;2023-04-12T01:32:09;97516.26;;;2.13;63.41
78064;BME280;67429;51.596;-3.264;2023-04-12T01:34:34;97508.85;;;1.13;63.58
78064;BME280;67429;51.596;-3.264;2023-04-12T01:37:01;97503.80;;;1.94;61.90
78064;BME280;67429;51.596;-3.264;2023-04-12T01:39:25;97507.60;;;1.44;63.13
78064;BME280;67429;51.596;-3.264;2023-04-12T01:41:50;97512.99;;;1.23;64.22
78064;BME280;67429;51.596;-3.264;2023-04-12T01:44:17;97506.68;;;1.15;62.95
78064;BME280;67429;51.596;-3.264;2023-04-12T01:46:42;97509.47;;;1.15;62.38
78064;BME280;67429;51.596;-3.264;2023-04-12T01:49:08;97506.78;;;2.10;60.92
78064;BME280;67429;51.596;-3.264;2023-04-12T01:51:40;97497.54;;;2.09;60.72
78064;BME280;67429;51.596;-3.264;2023-04-12T01:54:02;97490.09;;;1.34;62.51
78064;BME280;67429;51.596;-3.264;2023-04-12T01:56:29;97495.19;;;2.75;59.91
78064;BME280;67429;51.596;-3.264;2023-04-12T01:58:52;97491.41;;;3.00;59.32
78064;BME280;67429;51.596;-3.264;2023-04-12T02:01:17;97482.29;;;2.29;59.35
78064;BME280;67429;51.596;-3.264;2023-04-12T02:03:43;97482.64;;;2.35;58.91
78064;BME280;67429;51.596;-3.264;2023-04-12T02:06:08;97493.30;;;3.05;57.84
78064;BME280;67429;51.596;-3.264;2023-04-12T02:08:34;97489.01;;;2.89;57.61
78064;BME280;67429;51.596;-3.264;2023-04-12T02:11:00;97484.76;;;1.71;61.74
78064;BME280;67429;51.596;-3.264;2023-04-12T02:13:26;97485.03;;;2.52;58.75
78064;BME280;67429;51.596;-3.264;2023-04-12T02:15:53;97472.26;;;1.68;61.29
78064;BME280;67429;51.596;-3.264;2023-04-12T02:18:17;97471.48;;;1.81;60.42
78064;BME280;67429;51.596;-3.264;2023-04-12T02:20:43;97466.42;;;1.91;59.80
78064;BME280;67429;51.596;-3.264;2023-04-12T02:23:09;97465.77;;;2.44;59.83
78064;BME280;67429;51.596;-3.264;2023-04-12T02:25:35;97453.06;;;1.66;61.72
78064;BME280;67429;51.596;-3.264;2023-04-12T02:28:00;97449.52;;;1.68;62.17
78064;BME280;67429;51.596;-3.264;2023-04-12T02:30:25;97452.39;;;2.31;60.05
78064;BME280;67429;51.596;-3.264;2023-04-12T02:32:51;97447.47;;;2.48;59.92
78064;BME280;67429;51.596;-3.264;2023-04-12T02:35:17;97434.45;;;1.19;63.83
78064;BME280;67429;51.596;-3.264;2023-04-12T02:37:44;97434.31;;;0.49;66.67
78064;BME280;67429;51.596;-3.264;2023-04-12T02:40:10;97428.11;;;1.08;65.77
78064;BME280;67429;51.596;-3.264;2023-04-12T02:42:35;97419.51;;;2.15;63.16
78064;BME280;67429;51.596;-3.264;2023-04-12T02:45:00;97418.11;;;2.47;61.78
78064;BME280;67429;51.596;-3.264;2023-04-12T02:47:26;97417.11;;;2.97;60.40
78064;BME280;67429;51.596;-3.264;2023-04-12T02:49:52;97417.92;;;3.33;59.92
78064;BME280;67429;51.596;-3.264;2023-04-12T02:52:18;97411.81;;;2.63;59.73
78064;BME280;67429;51.596;-3.264;2023-04-12T02:54:44;97408.47;;;3.45;57.94
78064;BME280;67429;51.596;-3.264;2023-04-12T02:57:09;97418.04;;;3.98;57.77
78064;BME280;67429;51.596;-3.264;2023-04-12T02:59:35;97460.31;;;3.27;59.44
78064;BME280;67429;51.596;-3.264;2023-04-12T03:02:01;97466.91;;;0.15;69.59
78064;BME280;67429;51.596;-3.264;2023-04-12T03:04:27;97484.68;;;-0.02;71.50
78064;BME280;67429;51.596;-3.264;2023-04-12T03:06:52;97473.43;;;0.59;69.60
78064;BME280;67429;51.596;-3.264;2023-04-12T03:09:18;97460.96;;;0.23;68.89
78064;BME280;67429;51.596;-3.264;2023-04-12T03:11:45;97445.72;;;-0.06;68.78
78064;BME280;67429;51.596;-3.264;2023-04-12T03:14:10;97432.66;;;0.88;66.63
78064;BME280;67429;51.596;-3.264;2023-04-12T03:16:36;97433.68;;;0.91;65.72
78064;BME280;67429;51.596;-3.264;2023-04-12T03:19:02;97437.36;;;1.80;62.60
78064;BME280;67429;51.596;-3.264;2023-04-12T03:21:27;97434.34;;;1.77;61.66
78064;BME280;67429;51.596;-3.264;2023-04-12T03:23:53;97424.81;;;2.06;60.00
78064;BME280;67429;51.596;-3.264;2023-04-12T03:26:19;97422.67;;;2.01;58.95
78064;BME280;67429;51.596;-3.264;2023-04-12T03:28:45;97415.38;;;1.84;59.10
78064;BME280;67429;51.596;-3.264;2023-04-12T03:31:10;97417.51;;;2.34;58.96
78064;BME280;67429;51.596;-3.264;2023-04-12T03:33:36;97417.81;;;2.51;57.59
78064;BME280;67429;51.596;-3.264;2023-04-12T03:36:01;97403.17;;;0.80;62.99
78064;BME280;67429;51.596;-3.264;2023-04-12T03:38:26;97405.35;;;1.63;60.93
78064;BME280;67429;51.596;-3.264;2023-04-12T03:40:52;97399.42;;;0.04;64.65
78064;BME280;67429;51.596;-3.264;2023-04-12T03:43:17;97396.34;;;1.70;62.27
78064;BME280;67429;51.596;-3.264;2023-04-12T03:45:43;97397.64;;;2.00;60.28
78064;BME280;67429;51.596;-3.264;2023-04-12T03:48:09;97393.23;;;1.73;60.90
78064;BME280;67429;51.596;-3.264;2023-04-12T03:50:35;97398.84;;;2.28;60.03
78064;BME280;67429;51.596;-3.264;2023-04-12T03:53:00;97391.36;;;2.16;60.41
78064;BME280;67429;51.596;-3.264;2023-04-12T03:55:26;97385.70;;;1.58;60.90
78064;BME280;67429;51.596;-3.264;2023-04-12T03:57:52;97397.28;;;2.30;59.75
78064;BME280;67429;51.596;-3.264;2023-04-12T04:00:18;97380.62;;;2.17;59.32
78064;BME280;67429;51.596;-3.264;2023-04-12T04:02:44;97373.07;;;2.40;58.50
78064;BME280;67429;51.596;-3.264;2023-04-12T04:05:10;97362.68;;;2.24;58.92
78064;BME280;67429;51.596;-3.264;2023-04-12T04:07:35;97355.70;;;2.40;58.46
78064;BME280;67429;51.596;-3.264;2023-04-12T04:10:02;97346.86;;;2.43;57.34
78064;BME280;67429;51.596;-3.264;2023-04-12T04:12:27;97342.18;;;3.03;56.79
78064;BME280;67429;51.596;-3.264;2023-04-12T04:14:52;97329.65;;;2.63;57.08
78064;BME280;67429;51.596;-3.264;2023-04-12T04:17:18;97332.97;;;1.94;59.66
78064;BME280;67429;51.596;-3.264;2023-04-12T04:19:43;97332.81;;;2.08;59.61
78064;BME280;67429;51.596;-3.264;2023-04-12T04:22:09;97337.51;;;2.84;59.62
78064;BME280;67429;51.596;-3.264;2023-04-12T04:24:34;97340.75;;;2.76;59.92
78064;BME280;67429;51.596;-3.264;2023-04-12T04:27:00;97338.80;;;1.86;62.25
78064;BME280;67429;51.596;-3.264;2023-04-12T04:29:25;97326.28;;;1.76;62.78
78064;BME280;67429;51.596;-3.264;2023-04-12T04:31:50;97309.94;;;1.65;62.97
78064;BME280;67429;51.596;-3.264;2023-04-12T04:34:16;97304.08;;;0.44;65.41
78064;BME280;67429;51.596;-3.264;2023-04-12T04:36:42;97289.30;;;0.50;64.96
78064;BME280;67429;51.596;-3.264;2023-04-12T04:39:07;97292.69;;;1.55;63.63
78064;BME280;67429;51.596;-3.264;2023-04-12T04:41:33;97289.35;;;0.82;64.53
78064;BME280;67429;51.596;-3.264;2023-04-12T04:43:57;97282.07;;;0.84;65.34
78064;BME280;67429;51.596;-3.264;2023-04-12T04:46:24;97282.25;;;1.38;64.66
78064;BME280;67429;51.596;-3.264;2023-04-12T04:48:50;97286.53;;;1.56;64.92
78064;BME280;67429;51.596;-3.264;2023-04-12T04:51:16;97278.15;;;0.24;67.84
78064;BME280;67429;51.596;-3.264;2023-04-12T04:53:42;97278.38;;;0.73;66.58
78064;BME280;67429;51.596;-3.264;2023-04-12T04:56:08;97279.65;;;1.63;64.35
78064;BME280;67429;51.596;-3.264;2023-04-12T04:58:32;97286.40;;;2.11;63.54
78064;BME280;67429;51.596;-3.264;2023-04-12T05:00:58;97280.10;;;1.49;63.97
78064;BME280;67429;51.596;-3.264;2023-04-12T05:03:24;97279.98;;;2.33;62.59
78064;BME280;67429;51.596;-3.264;2023-04-12T05:05:50;97283.12;;;1.87;63.36
78064;BME280;67429;51.596;-3.264;2023-04-12T05:08:16;97301.31;;;1.42;64.38
78064;BME280;67429;51.596;-3.264;2023-04-12T05:10:43;97276.22;;;0.48;67.16
78064;BME280;67429;51.596;-3.264;2023-04-12T05:13:07;97276.34;;;1.15;66.05
78064;BME280;67429;51.596;-3.264;2023-04-12T05:15:33;97280.60;;;0.75;66.76
78064;BME280;67429;51.596;-3.264;2023-04-12T05:17:59;97286.02;;;1.19;65.25
78064;BME280;67429;51.596;-3.264;2023-04-12T05:20:25;97282.15;;;1.32;65.02
78064;BME280;67429;51.596;-3.264;2023-04-12T05:22:51;97288.17;;;1.80;63.90
78064;BME280;67429;51.596;-3.264;2023-04-12T05:25:17;97279.25;;;0.96;64.98
78064;BME280;67429;51.596;-3.264;2023-04-12T05:27:43;97287.24;;;2.26;62.59
78064;BME280;67429;51.596;-3.264;2023-04-12T05:30:09;97289.81;;;1.85;62.91
78064;BME280;67429;51.596;-3.264;2023-04-12T05:32:34;97294.30;;;1.64;64.10
78064;BME280;67429;51.596;-3.264;2023-04-12T05:35:00;97289.35;;;1.11;65.06
78064;BME280;67429;51.596;-3.264;2023-04-12T05:37:25;97284.92;;;1.34;65.36
78064;BME280;67429;51.596;-3.264;2023-04-12T05:39:51;97281.77;;;1.53;63.51
78064;BME280;67429;51.596;-3.264;2023-04-12T05:42:17;97283.71;;;0.88;63.20
78064;BME280;67429;51.596;-3.264;2023-04-12T05:44:43;97281.28;;;1.21;61.53
78064;BME280;67429;51.596;-3.264;2023-04-12T05:47:08;97272.68;;;1.22;61.14
78064;BME280;67429;51.596;-3.264;2023-04-12T05:49:34;97268.82;;;1.16;60.91
78064;BME280;67429;51.596;-3.264;2023-04-12T05:52:01;97264.42;;;0.56;62.32
78064;BME280;67429;51.596;-3.264;2023-04-12T05:54:26;97266.32;;;1.15;61.71
78064;BME280;67429;51.596;-3.264;2023-04-12T05:56:52;97271.49;;;1.80;61.15
78064;BME280;67429;51.596;-3.264;2023-04-12T05:59:17;97269.98;;;0.77;62.47
78064;BME280;67429;51.596;-3.264;2023-04-12T06:01:43;97286.42;;;1.28;61.65
78064;BME280;67429;51.596;-3.264;2023-04-12T06:04:09;97286.17;;;1.01;64.18
78064;BME280;67429;51.596;-3.264;2023-04-12T06:06:35;97284.88;;;0.50;65.40
78064;BME280;67429;51.596;-3.264;2023-04-12T06:09:01;97275.93;;;1.22;63.85
78064;BME280;67429;51.596;-3.264;2023-04-12T06:11:26;97270.69;;;1.26;62.74
78064;BME280;67429;51.596;-3.264;2023-04-12T06:13:52;97260.90;;;0.65;62.19
78064;BME280;67429;51.596;-3.264;2023-04-12T06:16:18;97256.23;;;0.37;61.84
78064;BME280;67429;51.596;-3.264;2023-04-12T06:18:44;97256.64;;;0.73;61.52
78064;BME280;67429;51.596;-3.264;2023-04-12T06:21:10;97261.56;;;1.62;60.37
78064;BME280;67429;51.596;-3.264;2023-04-12T06:23:35;97251.24;;;1.05;60.71
78064;BME280;67429;51.596;-3.264;2023-04-12T06:26:02;97251.92;;;0.94;61.90
78064;BME280;67429;51.596;-3.264;2023-04-12T06:28:27;97243.99;;;0.74;61.90
78064;BME280;67429;51.596;-3.264;2023-04-12T06:30:53;97245.83;;;1.42;60.68
78064;BME280;67429;51.596;-3.264;2023-04-12T06:33:19;97248.17;;;1.35;61.92
78064;BME280;67429;51.596;-3.264;2023-04-12T06:35:44;97243.90;;;1.20;63.11
78064;BME280;67429;51.596;-3.264;2023-04-12T06:38:10;97233.70;;;2.43;60.64
78064;BME280;67429;51.596;-3.264;2023-04-12T06:40:36;97230.57;;;2.92;59.55
78064;BME280;67429;51.596;-3.264;2023-04-12T06:43:02;97241.50;;;2.14;60.70
78064;BME280;67429;51.596;-3.264;2023-04-12T06:45:28;97224.74;;;2.58;59.78
78064;BME280;67429;51.596;-3.264;2023-04-12T06:47:54;97232.24;;;2.13;60.87
78064;BME280;67429;51.596;-3.264;2023-04-12T06:50:19;97229.05;;;1.37;62.79
78064;BME280;67429;51.596;-3.264;2023-04-12T06:52:45;97217.95;;;1.74;63.55
78064;BME280;67429;51.596;-3.264;2023-04-12T06:55:11;97222.37;;;1.86;63.02
78064;BME280;67429;51.596;-3.264;2023-04-12T06:57:37;97226.49;;;2.34;63.17
78064;BME280;67429;51.596;-3.264;2023-04-12T07:00:03;97226.24;;;1.94;63.70
78064;BME280;67429;51.596;-3.264;2023-04-12T07:02:29;97225.00;;;2.00;63.46
78064;BME280;67429;51.596;-3.264;2023-04-12T07:04:54;97229.90;;;2.03;64.11
78064;BME280;67429;51.596;-3.264;2023-04-12T07:07:20;97208.41;;;1.57;64.41
78064;BME280;67429;51.596;-3.264;2023-04-12T07:09:46;97191.96;;;1.53;64.45
78064;BME280;67429;51.596;-3.264;2023-04-12T07:12:11;97181.46;;;1.74;63.62
78064;BME280;67429;51.596;-3.264;2023-04-12T07:14:37;97168.53;;;1.29;63.83
78064;BME280;67429;51.596;-3.264;2023-04-12T07:17:03;97164.05;;;1.90;63.18
78064;BME280;67429;51.596;-3.264;2023-04-12T07:19:29;97157.02;;;2.00;62.39
78064;BME280;67429;51.596;-3.264;2023-04-12T07:21:54;97160.73;;;2.38;61.67
78064;BME280;67429;51.596;-3.264;2023-04-12T07:24:20;97163.56;;;2.10;61.98
78064;BME280;67429;51.596;-3.264;2023-04-12T07:26:46;97163.69;;;1.51;61.65
78064;BME280;67429;51.596;-3.264;2023-04-12T07:29:12;97147.52;;;0.97;64.00
78064;BME280;67429;51.596;-3.264;2023-04-12T07:31:38;97141.04;;;1.46;62.98
78064;BME280;67429;51.596;-3.264;2023-04-12T07:34:04;97125.66;;;2.06;62.73
78064;BME280;67429;51.596;-3.264;2023-04-12T07:36:29;97123.93;;;1.71;62.56
78064;BME280;67429;51.596;-3.264;2023-04-12T07:38:55;97116.98;;;2.26;62.08
78064;BME280;67429;51.596;-3.264;2023-04-12T07:41:21;97107.40;;;2.90;60.58
78064;BME280;67429;51.596;-3.264;2023-04-12T07:43:46;97108.77;;;2.69;60.81
78064;BME280;67429;51.596;-3.264;2023-04-12T07:46:13;97111.52;;;2.79;60.46
78064;BME280;67429;51.596;-3.264;2023-04-12T07:48:38;97109.95;;;2.94;61.05
78064;BME280;67429;51.596;-3.264;2023-04-12T07:51:04;97116.77;;;2.05;64.22
78064;BME280;67429;51.596;-3.264;2023-04-12T07:53:29;97106.97;;;2.07;64.91
78064;BME280;67429;51.596;-3.264;2023-04-12T07:55:56;97106.10;;;2.66;63.15
78064;BME280;67429;51.596;-3.264;2023-04-12T07:58:23;97086.91;;;2.29;63.89
78064;BME280;67429;51.596;-3.264;2023-04-12T08:00:47;97083.56;;;2.70;64.06
78064;BME280;67429;51.596;-3.264;2023-04-12T08:03:15;97089.16;;;2.08;65.10
78064;BME280;67429;51.596;-3.264;2023-04-12T08:05:39;97073.03;;;1.53;67.29
78064;BME280;67429;51.596;-3.264;2023-04-12T08:08:05;97056.76;;;1.56;68.25
78064;BME280;67429;51.596;-3.264;2023-04-12T08:10:30;97064.05;;;1.21;67.73
78064;BME280;67429;51.596;-3.264;2023-04-12T08:12:55;97049.78;;;1.39;67.43
78064;BME280;67429;51.596;-3.264;2023-04-12T08:15:21;97033.86;;;1.27;66.95
78064;BME280;67429;51.596;-3.264;2023-04-12T08:17:47;97028.84;;;1.19;67.76
78064;BME280;67429;51.596;-3.264;2023-04-12T08:20:13;97025.08;;;1.54;67.27
78064;BME280;67429;51.596;-3.264;2023-04-12T08:22:38;97003.97;;;1.79;66.13
78064;BME280;67429;51.596;-3.264;2023-04-12T08:25:05;96998.87;;;1.88;65.30
78064;BME280;67429;51.596;-3.264;2023-04-12T08:27:29;97000.31;;;1.43;66.67
78064;BME280;67429;51.596;-3.264;2023-04-12T08:29:56;97001.70;;;1.71;66.41
78064;BME280;67429;51.596;-3.264;2023-04-12T08:32:21;96986.98;;;1.11;67.24
78064;BME280;67429;51.596;-3.264;2023-04-12T08:34:47;96966.01;;;0.80;69.20
78064;BME280;67429;51.596;-3.264;2023-04-12T08:37:13;96980.75;;;1.30;69.78
78064;BME280;67429;51.596;-3.264;2023-04-12T08:39:38;96979.92;;;0.83;70.27
78064;BME280;67429;51.596;-3.264;2023-04-12T08:42:05;96982.25;;;0.15;72.54
78064;BME280;67429;51.596;-3.264;2023-04-12T08:44:34;97020.60;;;0.27;73.77
78064;BME280;67429;51.596;-3.264;2023-04-12T08:46:55;97005.33;;;0.01;74.13
78064;BME280;67429;51.596;-3.264;2023-04-12T08:49:21;96965.72;;;0.13;73.21
78064;BME280;67429;51.596;-3.264;2023-04-12T08:51:47;96978.96;;;-0.04;74.18
78064;BME280;67429;51.596;-3.264;2023-04-12T08:54:14;96949.67;;;0.29;73.69
78064;BME280;67429;51.596;-3.264;2023-04-12T08:56:41;96950.78;;;0.09;75.22
78064;BME280;67429;51.596;-3.264;2023-04-12T08:59:04;96961.41;;;-0.02;75.28
78064;BME280;67429;51.596;-3.264;2023-04-12T09:01:30;96964.30;;;-0.52;75.44
78064;BME280;67429;51.596;-3.264;2023-04-12T09:03:55;96956.19;;;-0.02;74.69
78064;BME280;67429;51.596;-3.264;2023-04-12T09:06:21;96924.96;;;-0.32;74.56
78064;BME280;67429;51.596;-3.264;2023-04-12T09:08:52;96915.23;;;-0.07;72.13
78064;BME280;67429;51.596;-3.264;2023-04-12T09:11:22;96898.04;;;0.76;72.20
78064;BME280;67429;51.596;-3.264;2023-04-12T09:13:39;96899.75;;;0.46;72.33
78064;BME280;67429;51.596;-3.264;2023-04-12T09:16:05;96908.49;;;0.22;72.50
78064;BME280;67429;51.596;-3.264;2023-04-12T09:18:40;96936.79;;;0.28;74.38
78064;BME280;67429;51.596;-3.264;2023-04-12T09:21:06;96913.25;;;-0.10;75.55
78064;BME280;67429;51.596;-3.264;2023-04-12T09:23:23;96930.04;;;-0.09;76.61
78064;BME280;67429;51.596;-3.264;2023-04-12T09:25:48;96911.06;;;-0.52;76.43
78064;BME280;67429;51.596;-3.264;2023-04-12T09:28:20;96904.03;;;-0.19;77.34
78064;BME280;67429;51.596;-3.264;2023-04-12T09:30:41;96882.19;;;-0.41;77.94
78064;BME280;67429;51.596;-3.264;2023-04-12T09:33:10;96880.54;;;-0.41;78.08
78064;BME280;67429;51.596;-3.264;2023-04-12T09:35:32;96868.39;;;-0.04;76.87
78064;BME280;67429;51.596;-3.264;2023-04-12T09:37:57;96871.71;;;-0.16;77.27
78064;BME280;67429;51.596;-3.264;2023-04-12T09:40:23;96861.50;;;-0.02;76.70
78064;BME280;67429;51.596;-3.264;2023-04-12T09:42:51;96845.58;;;0.10;77.13
78064;BME280;67429;51.596;-3.264;2023-04-12T09:45:19;96850.20;;;0.65;75.91
78064;BME280;67429;51.596;-3.264;2023-04-12T09:47:41;96824.75;;;0.52;76.60
78064;BME280;67429;51.596;-3.264;2023-04-12T09:50:07;96819.13;;;0.76;75.01
78064;BME280;67429;51.596;-3.264;2023-04-12T09:52:35;96796.93;;;1.13;74.58
78064;BME280;67429;51.596;-3.264;2023-04-12T09:54:57;96778.77;;;1.83;73.29
78064;BME280;67429;51.596;-3.264;2023-04-12T09:57:23;96755.74;;;2.05;71.88
78064;BME280;67429;51.596;-3.264;2023-04-12T09:59:49;96750.26;;;1.96;70.73
78064;BME280;67429;51.596;-3.264;2023-04-12T10:02:16;96726.40;;;2.18;71.83
78064;BME280;67429;51.596;-3.264;2023-04-12T10:04:42;96711.14;;;1.83;73.38
78064;BME280;67429;51.596;-3.264;2023-04-12T10:07:06;96706.00;;;1.95;71.10
78064;BME280;67429;51.596;-3.264;2023-04-12T10:09:32;96702.39;;;1.42;72.50
78064;BME280;67429;51.596;-3.264;2023-04-12T10:11:57;96676.88;;;1.29;73.00
78064;BME280;67429;51.596;-3.264;2023-04-12T10:14:26;96658.21;;;1.26;73.54
78064;BME280;67429;51.596;-3.264;2023-04-12T10:16:49;96653.81;;;1.56;74.01
78064;BME280;67429;51.596;-3.264;2023-04-12T10:19:16;96665.57;;;1.21;74.63
78064;BME280;67429;51.596;-3.264;2023-04-12T10:21:42;96665.48;;;1.27;75.03
78064;BME280;67429;51.596;-3.264;2023-04-12T10:24:06;96703.60;;;0.67;76.18
78064;BME280;67429;51.596;-3.264;2023-04-12T10:26:31;96694.70;;;0.54;77.88
78064;BME280;67429;51.596;-3.264;2023-04-12T10:31:27;96732.18;;;0.91;75.36
78064;BME280;67429;51.596;-3.264;2023-04-12T10:33:48;96703.84;;;0.91;74.43
78064;BME280;67429;51.596;-3.264;2023-04-12T10:36:15;96707.42;;;1.31;73.28
78064;BME280;67429;51.596;-3.264;2023-04-12T10:38:45;96715.25;;;1.40;73.72
78064;BME280;67429;51.596;-3.264;2023-04-12T10:41:10;96669.98;;;0.91;73.27
78064;BME280;67429;51.596;-3.264;2023-04-12T10:43:30;96673.38;;;1.91;71.69
78064;BME280;67429;51.596;-3.264;2023-04-12T10:45:56;96675.73;;;2.30;70.47
78064;BME280;67429;51.596;-3.264;2023-04-12T10:48:28;96657.52;;;2.74;71.10
78064;BME280;67429;51.596;-3.264;2023-04-12T10:50:54;96662.52;;;3.05;68.87
78064;BME280;67429;51.596;-3.264;2023-04-12T10:53:22;96642.77;;;3.05;68.48
78064;BME280;67429;51.596;-3.264;2023-04-12T10:55:40;96627.91;;;3.14;68.87
78064;BME280;67429;51.596;-3.264;2023-04-12T10:58:05;96613.14;;;3.41;68.69
78064;BME280;67429;51.596;-3.264;2023-04-12T11:03:06;96609.70;;;4.24;66.49
78064;BME280;67429;51.596;-3.264;2023-04-12T11:05:22;96591.08;;;3.98;64.97
78064;BME280;67429;51.596;-3.264;2023-04-12T11:07:52;96583.24;;;3.91;65.99
78064;BME280;67429;51.596;-3.264;2023-04-12T11:10:15;96569.29;;;3.99;67.35
78064;BME280;67429;51.596;-3.264;2023-04-12T11:12:40;96542.91;;;3.62;67.43
78064;BME280;67429;51.596;-3.264;2023-04-12T11:15:05;96564.44;;;3.17;68.76
78064;BME280;67429;51.596;-3.264;2023-04-12T11:17:30;96579.72;;;3.04;70.90
78064;BME280;67429;51.596;-3.264;2023-04-12T11:19:57;96569.28;;;3.08;71.39
78064;BME280;67429;51.596;-3.264;2023-04-12T11:22:22;96560.57;;;2.96;72.43
78064;BME280;67429;51.596;-3.264;2023-04-12T11:24:47;96538.23;;;3.34;70.93
78064;BME280;67429;51.596;-3.264;2023-04-12T11:27:11;96549.55;;;3.51;70.46
78064;BME280;67429;51.596;-3.264;2023-04-12T11:29:36;96521.89;;;3.10;70.34
78064;BME280;67429;51.596;-3.264;2023-04-12T11:32:03;96536.84;;;3.39;71.65
78064;BME280;67429;51.596;-3.264;2023-04-12T11:34:31;96523.71;;;3.22;69.75
78064;BME280;67429;51.596;-3.264;2023-04-12T11:36:53;96519.24;;;3.79;69.29
78064;BME280;67429;51.596;-3.264;2023-04-12T11:39:19;96506.34;;;3.96;67.69
78064;BME280;67429;51.596;-3.264;2023-04-12T11:41:44;96524.46;;;3.58;68.32
78064;BME280;67429;51.596;-3.264;2023-04-12T11:44:09;96554.75;;;3.17;70.68
78064;BME280;67429;51.596;-3.264;2023-04-12T11:46:35;96619.13;;;2.15;71.92
78064;BME280;67429;51.596;-3.264;2023-04-12T11:49:01;96602.11;;;1.31;74.84
78064;BME280;67429;51.596;-3.264;2023-04-12T11:51:26;96586.12;;;0.79;75.24
78064;BME280;67429;51.596;-3.264;2023-04-12T11:53:52;96578.60;;;0.86;73.77
78064;BME280;67429;51.596;-3.264;2023-04-12T11:56:18;96557.86;;;0.59;72.12
78064;BME280;67429;51.596;-3.264;2023-04-12T11:58:45;96564.06;;;0.69;71.93
78064;BME280;67429;51.596;-3.264;2023-04-12T12:01:09;96531.90;;;1.10;71.58
78064;BME280;67429;51.596;-3.264;2023-04-12T12:03:35;96552.85;;;2.03;70.09
78064;BME280;67429;51.596;-3.264;2023-04-12T12:06:01;96549.06;;;3.05;66.27
78064;BME280;67429;51.596;-3.264;2023-04-12T12:08:27;96551.89;;;2.82;65.18
78064;BME280;67429;51.596;-3.264;2023-04-12T12:10:52;96543.95;;;2.91;63.73
78064;BME280;67429;51.596;-3.264;2023-04-12T12:13:18;96528.05;;;2.51;66.61
78064;BME280;67429;51.596;-3.264;2023-04-12T12:15:44;96535.04;;;3.30;67.02
78064;BME280;67429;51.596;-3.264;2023-04-12T12:18:09;96536.52;;;3.92;67.06
78064;BME280;67429;51.596;-3.264;2023-04-12T12:20:39;96522.95;;;4.30;67.13
78064;BME280;67429;51.596;-3.264;2023-04-12T12:23:01;96530.44;;;4.16;67.56
78064;BME280;67429;51.596;-3.264;2023-04-12T12:25:28;96514.00;;;3.79;67.14
78064;BME280;67429;51.596;-3.264;2023-04-12T12:27:56;96519.11;;;4.07;65.27
78064;BME280;67429;51.596;-3.264;2023-04-12T12:30:18;96531.58;;;3.46;65.91
78064;BME280;67429;51.596;-3.264;2023-04-12T12:32:43;96536.31;;;3.02;66.40
78064;BME280;67429;51.596;-3.264;2023-04-12T12:35:11;96545.77;;;2.53;65.69
78064;BME280;67429;51.596;-3.264;2023-04-12T12:37:34;96561.31;;;1.93;67.82
78064;BME280;67429;51.596;-3.264;2023-04-12T12:40:05;96546.23;;;1.84;68.40
78064;BME280;67429;51.596;-3.264;2023-04-12T12:42:26;96578.41;;;1.41;70.99
78064;BME280;67429;51.596;-3.264;2023-04-12T12:44:52;96532.02;;;1.10;71.12
78064;BME280;67429;51.596;-3.264;2023-04-12T12:47:17;96547.69;;;1.14;68.34
78064;BME280;67429;51.596;-3.264;2023-04-12T12:49:44;96545.52;;;1.44;70.24
78064;BME280;67429;51.596;-3.264;2023-04-12T12:52:09;96550.76;;;2.29;70.02
78064;BME280;67429;51.596;-3.264;2023-04-12T12:54:35;96549.10;;;2.48;70.02
78064;BME280;67429;51.596;-3.264;2023-04-12T12:57:00;96548.37;;;2.84;69.24